Latest Coastal Weather Observations for Larapuna (Eddystone Point)

IDT60701

Issued at 12:51 pm EST Tuesday 7 July 2015 (issued every 10 minutes, with the page automatically refreshed every 10 minutes)

About coastal observations | Map of coastal stations | Coastal observations for TAS | Marine services | Other Formats
Station Details ID: 092045 Name: LARAPUNA (EDDYSTONE POINT) Lat: -40.99 Lon: 148.35 Height: 19.7 m
Data from the previous 72 hours. | See also: Recent months at Larapuna (Eddystone Point)
Date/Time
EST
Temp

°C
Wind Pressure Rain
since 9am
mm
Weather Cloud Vis
km
Sea
Height
m
Swell
Dir
 
Speed
knots
Gust
knots
hPa Trend Height
m
Period
s
Dir
07/12:30pm 10.1 S 22 28 1024.1 - 0.0 - - - - - - -
07/12:00pm 10.0 S 20 25 1024.1 - 0.0 - - - - - - -
07/11:30am 10.0 S 20 25 1024.3 - 0.0 - - - - - - -
07/11:00am 9.6 SSW 20 25 1024.4 - 0.0 - - - - - - -
07/10:30am 9.1 SSW 21 25 1024.5 - 0.0 - - - - - - -
07/10:00am 8.7 SSW 23 27 1024.1 - 0.0 - - - - - - -
07/09:30am 8.3 SSW 21 26 1023.7 - 0.0 - - - - - - -
07/09:00am 6.7 SW 14 17 1023.5 - 0.0 - - - - - - -
07/08:30am 5.6 SW 13 15 1023.5 - 0.0 - - - - - - -
07/08:00am 5.7 SW 16 19 1023.1 - 0.0 - - - - - - -
07/07:30am 5.6 SW 15 18 1022.8 - 0.0 - - - - - - -
07/07:00am 5.6 SW 17 21 1022.4 - 0.0 - - - - - - -
07/06:30am 4.5 SW 13 18 1022.0 - 0.0 - - - - - - -
07/06:00am 4.9 SW 14 17 1021.6 - 0.0 - - - - - - -
07/05:30am 5.0 SW 14 16 1021.3 - 0.0 - - - - - - -
07/05:00am 5.0 SW 15 17 1021.0 - 0.0 - - - - - - -
07/04:30am 5.2 SW 15 18 1020.7 - 0.0 - - - - - - -
07/04:00am 4.9 SW 13 15 1020.6 - 0.0 - - - - - - -
07/03:30am 5.3 SW 15 18 1020.5 - 0.0 - - - - - - -
07/03:00am 5.9 SW 17 19 1020.7 - 0.0 - - - - - - -
07/02:30am 5.6 SW 12 16 1020.7 - 0.0 - - - - - - -
07/02:00am 5.5 SW 12 16 1020.4 - 0.0 - - - - - - -
07/01:30am 5.7 SW 16 18 1020.2 - 0.0 - - - - - - -
07/01:00am 6.5 SSW 18 23 1020.1 - 0.0 - - - - - - -
07/12:30am 6.5 SSW 19 24 1019.8 - 0.0 - - - - - - -
07/12:00am 6.5 SSW 20 23 1019.6 - 0.0 - - - - - - -
 
Date/Time
EST
Temp

°C
Wind Pressure Rain
since 9am
mm
Weather Cloud Vis
km
Sea
Height
m
Swell
Dir
 
Speed
knots
Gust
knots
hPa Trend Height
m
Period
s
Dir
06/11:30pm 7.1 SSW 23 28 1019.5 - 0.0 - - - - - - -
06/11:00pm 7.2 S 25 30 1019.3 - 0.0 - - - - - - -
06/10:30pm 7.2 S 20 27 1019.2 - 0.0 - - - - - - -
06/10:00pm 6.9 SSW 22 28 1019.3 - 0.0 - - - - - - -
06/09:30pm 6.6 SSW 15 19 1019.3 - 0.0 - - - - - - -
06/09:00pm 7.7 S 21 25 1018.9 - 0.0 - - - - - - -
06/08:30pm 7.3 SSW 21 26 1018.7 - 0.0 - - - - - - -
06/08:00pm 7.7 SSW 23 27 1018.3 - 0.0 - - - - - - -
06/07:30pm 7.7 SSW 23 26 1018.0 - 0.0 - - - - - - -
06/07:00pm 7.6 S 24 29 1017.5 - 0.0 - - - - - - -
06/06:30pm 7.8 S 24 29 1017.1 - 0.0 - - - - - - -
06/06:00pm 8.0 S 26 31 1016.6 - 0.0 - - - - - - -
06/05:30pm 8.2 S 27 32 1016.2 - 0.0 - - - - - - -
06/05:00pm 8.3 S 25 30 1016.0 - 0.0 - - - - - - -
06/04:30pm 8.3 S 26 29 1015.8 - 0.0 - - - - - - -
06/04:00pm 8.6 S 26 31 1015.5 - 0.0 - - - - - - -
06/03:30pm 9.2 S 25 31 1015.3 - 0.0 - - - - - - -
06/03:00pm 9.2 S 26 31 1015.0 - 0.0 - - - - - - -
06/02:30pm 9.0 S 27 31 1014.7 - 0.0 - - - - - - -
06/02:00pm 9.1 S 26 33 1014.5 - 0.0 - - - - - - -
06/01:30pm 9.2 S 26 31 1014.6 - 0.0 - - - - - - -
06/01:00pm 8.7 S 27 33 1014.5 - 0.0 - - - - - - -
06/12:30pm 9.1 S 27 32 1014.5 - 0.0 - - - - - - -
06/12:00pm 9.0 S 27 32 1014.6 - 0.0 - - - - - - -
06/11:30am 8.8 S 24 29 1014.9 - 0.0 - - - - - - -
06/11:00am 8.8 S 26 31 1015.0 - 0.0 - - - - - - -
06/10:30am 8.8 S 26 31 1015.0 - 0.0 - - - - - - -
06/10:00am 8.8 S 23 28 1014.7 - 0.0 - - - - - - -
06/09:30am 8.7 S 24 29 1014.9 - 0.0 - - - - - - -
06/09:00am 8.5 S 25 30 1014.5 - 23.0 Rain - - - - - -
06/08:30am 8.6 S 24 28 1014.3 - 22.8 - - - - - - -
06/08:00am 8.6 S 24 29 1014.0 - 22.6 - - - - - - -
06/07:30am 8.8 S 24 27 1013.9 - 22.4 - - - - - - -
06/07:00am 9.1 S 22 26 1013.6 - 22.2 - - - - - - -
06/06:30am 9.0 S 22 26 1013.3 - 22.0 - - - - - - -
06/06:00am 9.2 S 22 26 1013.1 - 22.0 Recent precip. - - - - - -
06/05:30am 9.2 S 22 25 1012.8 - 21.6 - - - - - - -
06/05:00am 9.2 SSE 15 18 1013.0 - 21.4 - - - - - - -
06/04:30am 9.3 SSE 15 18 1012.8 - 20.8 - - - - - - -
06/04:00am 9.2 S 12 15 1013.1 - 18.4 - - - - - - -
06/03:30am 9.0 SSW 16 18 1013.1 - 16.2 - - - - - - -
06/03:00am 9.0 SSW 17 19 1013.3 - 14.8 Rain - - - - - -
06/02:30am 8.7 S 17 20 1013.4 - 13.4 - - - - - - -
06/02:00am 8.6 SSW 16 19 1013.4 - 12.6 - - - - - - -
06/01:30am 8.7 SSW 17 20 1013.4 - 11.8 - - - - - - -
06/01:00am 8.6 SSW 18 20 1013.6 - 10.8 - - - - - - -
06/12:30am 8.9 SSW 18 21 1013.9 - 9.6 - - - - - - -
06/12:00am 9.2 S 17 19 1013.9 - 9.2 Recent precip. - - - - - -
 
Date/Time
EST
Temp

°C
Wind Pressure Rain
since 9am
mm
Weather Cloud Vis
km
Sea
Height
m
Swell
Dir
 
Speed
knots
Gust
knots
hPa Trend Height
m
Period
s
Dir
05/11:30pm 9.1 S 15 18 1014.1 - 9.0 - - - - - - -
05/11:00pm 9.3 S 15 17 1014.2 - 8.8 - - - - - - -
05/10:30pm 9.3 S 14 16 1014.2 - 8.6 - - - - - - -
05/10:00pm 9.4 S 14 16 1014.2 - 8.2 - - - - - - -
05/09:30pm 9.5 SSE 15 18 1013.9 - 8.0 - - - - - - -
05/09:00pm 9.5 S 15 17 1014.2 - 7.4 Rain - - - - - -
05/08:30pm 9.8 S 14 16 1014.1 - 6.0 - - - - - - -
05/08:00pm 10.0 S 14 16 1014.0 - 5.2 - - - - - - -
05/07:30pm 10.0 S 13 15 1014.0 - 5.0 - - - - - - -
05/07:00pm 9.9 S 9 11 1013.8 - 5.0 - - - - - - -
05/06:30pm 9.8 S 10 11 1013.7 - 5.0 - - - - - - -
05/06:00pm 9.9 SSW 11 13 1013.7 - 4.8 - - - - - - -
05/05:30pm 9.8 S 11 13 1013.5 - 4.8 - - - - - - -
05/05:00pm 9.7 S 11 13 1013.3 - 4.8 - - - - - - -
05/04:30pm 9.6 S 8 9 1013.1 - 4.8 - - - - - - -
05/04:00pm 9.6 S 8 10 1013.0 - 4.8 - - - - - - -
05/03:30pm 10.0 S 8 10 1013.0 - 4.6 - - - - - - -
05/03:00pm 10.1 S 9 10 1012.9 - 4.6 - - - - - - -
05/02:30pm 10.4 SSW 10 11 1012.8 - 4.6 - - - - - - -
05/02:00pm 10.7 SSW 11 12 1012.8 - 4.6 - - - - - - -
05/01:30pm 11.2 SSW 8 10 1012.5 - 4.4 - - - - - - -
05/01:00pm 11.2 W 2 6 1012.6 - 4.2 - - - - - - -
05/12:30pm 10.7 W 5 7 1013.0 - 3.8 - - - - - - -
05/12:00pm 10.4 NW 9 11 1013.5 - 1.4 Rain - - - - - -
05/11:30am 10.2 NW 7 9 1013.8 - 0.8 - - - - - - -
05/11:00am 10.0 NW 6 8 1014.5 - 0.2 - - - - - - -
05/10:30am 9.8 NW 4 6 1014.8 - 0.2 - - - - - - -
05/10:00am 9.5 WNW 3 4 1014.9 - 0.0 - - - - - - -
05/09:30am 9.4 CALM 0 0 1014.8 - 0.0 - - - - - - -
05/09:00am 9.0 W 3 4 1014.7 - 0.2 - - - - - - -
05/08:30am 9.0 W 5 7 1014.5 - 0.2 - - - - - - -
05/08:00am 8.7 WSW 7 10 1014.7 - 0.2 - - - - - - -
05/07:30am 8.8 W 4 6 1014.3 - 0.2 - - - - - - -
05/07:00am 9.1 SW 7 9 1014.5 - 0.2 - - - - - - -
05/06:30am 9.2 WSW 3 5 1014.3 - 0.2 - - - - - - -
05/06:00am 9.5 CALM 0 0 1014.5 - 0.0 - - - - - - -
05/05:30am 9.6 WNW 3 6 1014.5 - 0.0 - - - - - - -
05/05:00am 9.7 NW 6 9 1014.3 - 0.0 - - - - - - -
05/04:30am 9.9 WNW 9 12 1014.0 - 0.0 - - - - - - -
05/04:00am 9.9 W 15 22 1013.9 - 0.0 - - - - - - -
05/03:30am 9.9 W 16 22 1013.8 - 0.0 - - - - - - -
05/03:00am 10.0 W 17 22 1013.9 - 0.0 - - - - - - -
05/02:30am 9.9 W 19 26 1014.1 - 0.0 - - - - - - -
05/02:00am 10.0 W 13 23 1014.3 - 0.0 - - - - - - -
05/01:30am 9.7 W 6 11 1014.7 - 0.0 - - - - - - -
05/01:00am 9.6 WNW 6 8 1014.6 - 0.0 - - - - - - -
05/12:30am 9.6 W 7 11 1014.8 - 0.0 - - - - - - -
05/12:00am 9.6 W 8 12 1014.7 - 0.0 - - - - - - -
 
Date/Time
EST
Temp

°C
Wind Pressure Rain
since 9am
mm
Weather Cloud Vis
km
Sea
Height
m
Swell
Dir
 
Speed
knots
Gust
knots
hPa Trend Height
m
Period
s
Dir
04/11:30pm 10.1 W 11 14 1014.7 - 0.0 - - - - - - -
04/11:00pm 10.5 WSW 8 12 1014.8 - 0.0 - - - - - - -
04/10:30pm 10.2 WSW 7 13 1014.9 - 0.0 - - - - - - -
04/10:00pm 10.6 SW 5 7 1014.9 - 0.0 - - - - - - -
04/09:30pm 10.6 SSW 7 11 1014.6 - 0.0 - - - - - - -
04/09:00pm 10.9 ESE 3 8 1014.6 - 0.0 - - - - - - -
04/08:30pm 11.2 W 7 14 1014.5 - 0.0 - - - - - - -
04/08:00pm 11.5 W 16 24 1014.2 - 0.0 - - - - - - -
04/07:30pm 11.5 W 14 19 1014.0 - 0.0 - - - - - - -
04/07:00pm 11.5 WNW 16 22 1013.8 - 0.0 - - - - - - -
04/06:30pm 11.7 WNW 17 24 1013.5 - 0.0 - - - - - - -
04/06:00pm 11.7 WNW 15 23 1013.3 - 0.0 - - - - - - -
04/05:30pm 11.8 WNW 17 24 1013.0 - 0.0 - - - - - - -
04/05:00pm 12.3 WNW 17 22 1012.7 - 0.0 - - - - - - -
04/04:30pm 12.7 WNW 13 19 1013.1 - 0.0 - - - - - - -
04/04:00pm 13.6 WNW 14 19 1012.9 - 0.0 - - - - - - -
04/03:30pm 14.1 WNW 12 17 1012.9 - 0.0 - - - - - - -
04/03:00pm 14.4 WNW 15 21 1012.5 - 0.0 - - - - - - -
04/02:30pm 14.6 WNW 16 23 1012.5 - 0.0 - - - - - - -
04/02:00pm 14.9 WNW 14 20 1012.4 - 0.0 - - - - - - -
04/01:30pm 14.1 WNW 15 21 1012.3 - 0.0 - - - - - - -
04/01:00pm 14.7 WNW 15 26 1012.4 - 0.0 - - - - - - -
04/12:59pm 14.6 WNW 16 26 1012.5 - 0.0 - - - - - - -

Other Formats:

Comma delimited format used in spreadsheet applications
http://www.bom.gov.au/fwo/IDT60701/IDT60701.94983.axf

JavaScript Object Notation format (JSON) in row-major order
http://www.bom.gov.au/fwo/IDT60701/IDT60701.94983.json